地図

経路データ

SID SEASON NUMBER BASIN SUBBASIN NAME ISO_TIME NATURE LAT LON WMO_WIND WMO_PRES WMO_AGENCY TRACK_TYPE DIST2LAND LANDFALL IFLAG USA_AGENCY USA_ATCF_ID USA_LAT USA_LON USA_RECORD USA_STATUS USA_WIND USA_PRES USA_SSHS USA_R34_NE USA_R34_SE USA_R34_SW USA_R34_NW USA_R50_NE USA_R50_SE USA_R50_SW USA_R50_NW USA_R64_NE USA_R64_SE USA_R64_SW USA_R64_NW USA_POCI USA_ROCI USA_RMW USA_EYE TOKYO_LAT TOKYO_LON TOKYO_GRADE TOKYO_WIND TOKYO_PRES TOKYO_R50_DIR TOKYO_R50_LONG TOKYO_R50_SHORT TOKYO_R30_DIR TOKYO_R30_LONG TOKYO_R30_SHORT TOKYO_LAND CMA_LAT CMA_LON CMA_CAT CMA_WIND CMA_PRES HKO_LAT HKO_LON HKO_CAT HKO_WIND HKO_PRES NEWDELHI_LAT NEWDELHI_LON NEWDELHI_GRADE NEWDELHI_WIND NEWDELHI_PRES NEWDELHI_CI NEWDELHI_DP NEWDELHI_POCI REUNION_LAT REUNION_LON REUNION_TYPE REUNION_WIND REUNION_PRES REUNION_TNUM REUNION_CI REUNION_RMW REUNION_R34_NE REUNION_R34_SE REUNION_R34_SW REUNION_R34_NW REUNION_R50_NE REUNION_R50_SE REUNION_R50_SW REUNION_R50_NW REUNION_R64_NE REUNION_R64_SE REUNION_R64_SW REUNION_R64_NW BOM_LAT BOM_LON BOM_TYPE BOM_WIND BOM_PRES BOM_TNUM BOM_CI BOM_RMW BOM_R34_NE BOM_R34_SE BOM_R34_SW BOM_R34_NW BOM_R50_NE BOM_R50_SE BOM_R50_SW BOM_R50_NW BOM_R64_NE BOM_R64_SE BOM_R64_SW BOM_R64_NW BOM_ROCI BOM_POCI BOM_EYE BOM_POS_METHOD BOM_PRES_METHOD NADI_LAT NADI_LON NADI_CAT NADI_WIND NADI_PRES WELLINGTON_LAT WELLINGTON_LON WELLINGTON_WIND WELLINGTON_PRES DS824_LAT DS824_LON DS824_STAGE DS824_WIND DS824_PRES TD9636_LAT TD9636_LON TD9636_STAGE TD9636_WIND TD9636_PRES TD9635_LAT TD9635_LON TD9635_WIND TD9635_PRES TD9635_ROCI NEUMANN_LAT NEUMANN_LON NEUMANN_CLASS NEUMANN_WIND NEUMANN_PRES MLC_LAT MLC_LON MLC_CLASS MLC_WIND MLC_PRES USA_GUST BOM_GUST BOM_GUST_PER REUNION_GUST REUNION_GUST_PER USA_SEAHGT USA_SEARAD_NE USA_SEARAD_SE USA_SEARAD_SW USA_SEARAD_NW STORM_SPEED STORM_DIR
1982259N15202 1982 77 EP CP HANA 1982-09-15 18:00:00 TS 14.7000 -158.000 30 hurdat_epa main 529 515 O_________O___ hurdat_epa CP031982 14.7000 -158.000 TD 30 -1 14.7000 -158.000 1 30 5 321
1982259N15202 1982 77 EP CP HANA 1982-09-15 21:00:00 TS 14.9086 -158.172 main 520 507 P_________P___ CP031982 14.9101 -158.175 TD 32 -1 14.9026 -158.159 1 32 5 324
1982259N15202 1982 77 EP CP HANA 1982-09-16 00:00:00 TS 15.1000 -158.300 35 hurdat_epa main 507 494 O_________O___ hurdat_epa CP031982 15.1000 -158.300 TS 35 0 15.1000 -158.300 2 35 4 333
1982259N15202 1982 77 EP CP HANA 1982-09-16 03:00:00 TS 15.2633 -158.362 main 494 485 P_________P___ CP031982 15.2575 -158.350 TS 35 0 15.2866 -158.409 2 36 3 339
1982259N15202 1982 77 EP CP HANA 1982-09-16 06:00:00 TS 15.4109 -158.420 35 hurdat_epa main 485 476 O_________P___ hurdat_epa CP031982 15.4000 -158.400 TS 35 0 15.4544 -158.500 2 37 3 328
1982259N15202 1982 77 EP CP HANA 1982-09-16 09:00:00 TS 15.5530 -158.546 main 474 474 P_________P___ CP031982 15.5425 -158.535 TS 37 0 15.5951 -158.591 2 38 4 317
1982259N15202 1982 77 EP CP HANA 1982-09-16 12:00:00 TS 15.7000 -158.700 40 hurdat_epa main 479 470 O_________O___ hurdat_epa CP031982 15.7000 -158.700 TS 40 0 15.7000 -158.700 2 40 5 321
1982259N15202 1982 77 EP CP HANA 1982-09-16 15:00:00 TS 15.9131 -158.847 main 470 469 P_________P___ CP031982 15.9450 -158.842 TS 37 0 15.7854 -158.866 2 38 5 319
1982259N15202 1982 77 EP CP HANA 1982-09-16 18:00:00 TS 16.0465 -159.010 35 hurdat_epa main 477 477 O_________P___ hurdat_epa CP031982 16.1000 -159.000 TS 35 0 15.8326 -159.050 2 37 4 279
1982259N15202 1982 77 EP CP HANA 1982-09-16 21:00:00 TS 15.9697 -159.213 main 492 492 P_________P___ CP031982 16.0025 -159.208 TS 35 0 15.8385 -159.234 2 36 5 237
1982259N15202 1982 77 EP CP HANA 1982-09-17 00:00:00 TS 15.8000 -159.400 35 hurdat_epa main 523 523 O_________O___ hurdat_epa CP031982 15.8000 -159.400 TS 35 0 15.8000 -159.400 2 35 4 223
1982259N15202 1982 77 EP CP HANA 1982-09-17 03:00:00 TS 15.6568 -159.518 main 539 539 P_________P___ CP031982 15.6425 -159.515 TS 35 0 15.7140 -159.530 2 35 3 216
1982259N15202 1982 77 EP CP HANA 1982-09-17 06:00:00 TS 15.5175 -159.608 35 hurdat_epa main 562 562 O_________P___ hurdat_epa CP031982 15.5000 -159.600 TS 35 0 15.5874 -159.638 2 35 3 217
1982259N15202 1982 77 EP CP HANA 1982-09-17 09:00:00 TS 15.4144 -159.705 main 577 577 P_________P___ CP031982 15.4075 -159.700 TS 35 0 15.4422 -159.727 2 35 3 220
1982259N15202 1982 77 EP CP HANA 1982-09-17 12:00:00 TS 15.3000 -159.800 35 hurdat_epa main 593 593 O_________O___ hurdat_epa CP031982 15.3000 -159.800 TS 35 0 15.3000 -159.800 2 35 4 212
1982259N15202 1982 77 EP CP HANA 1982-09-17 15:00:00 TS 15.1063 -159.905 main 616 616 P_________P___ CP031982 15.0850 -159.915 TS 35 0 15.1765 -159.872 2 35 4 206
1982259N15202 1982 77 EP CP HANA 1982-09-17 18:00:00 TS 14.9325 -159.986 35 hurdat_epa main 640 640 O_________P___ hurdat_epa CP031982 14.9000 -160.000 TS 35 0 15.0625 -159.930 2 35 3 204
1982259N15202 1982 77 EP CP HANA 1982-09-17 21:00:00 TS 14.8724 -160.015 main 640 640 P_________P___ CP031982 14.8700 -160.015 TS 35 0 14.9672 -159.972 2 35 1 204
1982259N15202 1982 77 EP CP HANA 1982-09-18 00:00:00 TS 14.8600 -160.020 35 hurdat_epa main 640 640 O_________O___ hurdat_epa CP031982 14.9000 -160.000 TS 35 0 14.9000 -160.000 2 35 0 0
1982259N15202 1982 77 EP CP HANA 1982-09-18 03:00:00 TS 14.8464 -160.019 main 648 648 P_________P___ CP031982 14.9000 -160.000 TS 32 -1 14.9320 -159.953 2 33 0 0
1982259N15202 1982 77 EP CP HANA 1982-09-18 06:00:00 TS 14.8364 -160.020 30 hurdat_epa main 648 640 O_________P___ hurdat_epa CP031982 14.9000 -160.000 TD 30 -1 14.9821 -159.902 2 32 0 0
1982259N15202 1982 77 EP CP HANA 1982-09-18 09:00:00 TS 14.8602 -160.005 main 640 640 P_________P___ CP031982 14.9674 -159.947 TD 30 -1 14.9912 -159.900 2 31 1 225
1982259N15202 1982 77 EP CP HANA 1982-09-18 12:00:00 TS 14.7800 -160.080 30 hurdat_epa main 655 655 O_________O___ hurdat_epa CP031982 14.9000 -160.000 TD 30 -1 14.9000 -160.000 1 30 5 218
1982259N15202 1982 77 EP CP HANA 1982-09-18 15:00:00 TS 14.4662 -160.323 main 694 694 P_________P___ CP031982 14.4951 -160.290 TD 30 -1 14.6657 -160.241 1 30 9 219
1982259N15202 1982 77 EP CP HANA 1982-09-18 18:00:00 TS 14.0622 -160.679 30 hurdat_epa main 756 756 O_________P___ hurdat_epa CP031982 14.0000 -160.700 TD 30 -1 14.3112 -160.597 1 30 11 224
1982259N15202 1982 77 EP CP HANA 1982-09-18 21:00:00 TS 13.7093 -161.081 main 818 818 P_________P___ CP031982 13.6476 -161.107 TD 30 -1 13.8760 -161.030 1 30 10 230
1982259N15202 1982 77 EP CP HANA 1982-09-19 00:00:00 TS 13.4000 -161.500 30 hurdat_epa main 873 O_________O___ hurdat_epa CP031982 13.4000 -161.500 TD 30 -1 13.4000 -161.500 1 30 10 233

IBTrACS Databaseについて

本データベースは、米国NOAAが公開する1842年以降の世界の熱帯低気圧のベストトラックデータアーカイブInternational Best Track Archive for Climate Stewardship (IBTrACS)を、ウェブで閲覧しやすい形式に変換したものです。

最終更新日:2021-10-08